sensor_id;sensor_type;location;lat;lon;timestamp;P1;durP1;ratioP1;P2;durP2;ratioP2
35959;SDS011;22043;50.970;7.192;2023-08-07T00:00:54;8.25;;;2.20;;
35959;SDS011;22043;50.970;7.192;2023-08-07T00:03:19;10.00;;;1.77;;
35959;SDS011;22043;50.970;7.192;2023-08-07T00:05:45;15.55;;;2.53;;
35959;SDS011;22043;50.970;7.192;2023-08-07T00:08:11;8.85;;;1.58;;
35959;SDS011;22043;50.970;7.192;2023-08-07T00:10:37;7.80;;;1.38;;
35959;SDS011;22043;50.970;7.192;2023-08-07T00:13:02;6.30;;;2.10;;
35959;SDS011;22043;50.970;7.192;2023-08-07T00:15:28;5.95;;;2.13;;
35959;SDS011;22043;50.970;7.192;2023-08-07T00:17:54;9.32;;;2.00;;
35959;SDS011;22043;50.970;7.192;2023-08-07T00:20:19;6.20;;;1.95;;
35959;SDS011;22043;50.970;7.192;2023-08-07T00:22:45;8.70;;;1.83;;
35959;SDS011;22043;50.970;7.192;2023-08-07T00:25:10;7.18;;;1.90;;
35959;SDS011;22043;50.970;7.192;2023-08-07T00:27:36;9.45;;;2.13;;
35959;SDS011;22043;50.970;7.192;2023-08-07T00:30:01;6.15;;;1.88;;
35959;SDS011;22043;50.970;7.192;2023-08-07T00:32:27;6.82;;;2.08;;
35959;SDS011;22043;50.970;7.192;2023-08-07T00:34:52;10.05;;;2.08;;
35959;SDS011;22043;50.970;7.192;2023-08-07T00:37:17;4.88;;;2.25;;
35959;SDS011;22043;50.970;7.192;2023-08-07T00:39:43;5.32;;;2.22;;
35959;SDS011;22043;50.970;7.192;2023-08-07T00:42:09;6.00;;;1.92;;
35959;SDS011;22043;50.970;7.192;2023-08-07T00:44:34;6.82;;;2.13;;
35959;SDS011;22043;50.970;7.192;2023-08-07T00:47:00;7.90;;;2.10;;
35959;SDS011;22043;50.970;7.192;2023-08-07T00:49:26;9.15;;;2.53;;
35959;SDS011;22043;50.970;7.192;2023-08-07T00:51:51;5.32;;;1.98;;
35959;SDS011;22043;50.970;7.192;2023-08-07T00:54:18;5.22;;;2.00;;
35959;SDS011;22043;50.970;7.192;2023-08-07T00:56:43;9.70;;;2.53;;
35959;SDS011;22043;50.970;7.192;2023-08-07T00:59:09;5.75;;;2.88;;
35959;SDS011;22043;50.970;7.192;2023-08-07T01:01:35;8.48;;;2.20;;
35959;SDS011;22043;50.970;7.192;2023-08-07T01:04:01;12.13;;;2.30;;
35959;SDS011;22043;50.970;7.192;2023-08-07T01:06:27;4.47;;;2.05;;
35959;SDS011;22043;50.970;7.192;2023-08-07T01:08:52;7.10;;;2.28;;
35959;SDS011;22043;50.970;7.192;2023-08-07T01:14:00;11.85;;;2.40;;
35959;SDS011;22043;50.970;7.192;2023-08-07T01:16:34;10.73;;;3.03;;
35959;SDS011;22043;50.970;7.192;2023-08-07T01:21:28;5.25;;;2.30;;
35959;SDS011;22043;50.970;7.192;2023-08-07T01:23:53;7.35;;;2.10;;
35959;SDS011;22043;50.970;7.192;2023-08-07T01:26:20;8.18;;;2.10;;
35959;SDS011;22043;50.970;7.192;2023-08-07T01:28:47;3.75;;;1.70;;
35959;SDS011;22043;50.970;7.192;2023-08-07T01:31:33;7.43;;;1.40;;
35959;SDS011;22043;50.970;7.192;2023-08-07T01:34:02;7.65;;;2.28;;
35959;SDS011;22043;50.970;7.192;2023-08-07T01:36:31;7.15;;;1.90;;
35959;SDS011;22043;50.970;7.192;2023-08-07T01:38:58;6.38;;;1.80;;
35959;SDS011;22043;50.970;7.192;2023-08-07T01:41:25;6.32;;;1.95;;
35959;SDS011;22043;50.970;7.192;2023-08-07T01:43:51;3.17;;;1.50;;
35959;SDS011;22043;50.970;7.192;2023-08-07T01:46:17;5.43;;;1.48;;
35959;SDS011;22043;50.970;7.192;2023-08-07T01:48:45;5.50;;;1.67;;
35959;SDS011;22043;50.970;7.192;2023-08-07T01:51:10;8.48;;;1.77;;
35959;SDS011;22043;50.970;7.192;2023-08-07T01:53:36;5.95;;;1.80;;
35959;SDS011;22043;50.970;7.192;2023-08-07T01:56:04;6.68;;;2.63;;
35959;SDS011;22043;50.970;7.192;2023-08-07T01:58:29;7.50;;;2.92;;
35959;SDS011;22043;50.970;7.192;2023-08-07T02:00:55;9.32;;;2.42;;
35959;SDS011;22043;50.970;7.192;2023-08-07T02:03:22;3.80;;;2.30;;
35959;SDS011;22043;50.970;7.192;2023-08-07T02:05:48;7.07;;;1.95;;
35959;SDS011;22043;50.970;7.192;2023-08-07T02:08:16;8.45;;;2.47;;
35959;SDS011;22043;50.970;7.192;2023-08-07T02:10:41;11.13;;;2.45;;
35959;SDS011;22043;50.970;7.192;2023-08-07T02:13:06;7.65;;;2.22;;
35959;SDS011;22043;50.970;7.192;2023-08-07T02:15:32;8.07;;;2.10;;
35959;SDS011;22043;50.970;7.192;2023-08-07T02:17:57;9.30;;;2.42;;
35959;SDS011;22043;50.970;7.192;2023-08-07T02:20:23;10.20;;;2.22;;
35959;SDS011;22043;50.970;7.192;2023-08-07T02:22:49;6.25;;;2.90;;
35959;SDS011;22043;50.970;7.192;2023-08-07T02:25:15;6.38;;;3.05;;
35959;SDS011;22043;50.970;7.192;2023-08-07T02:27:40;7.45;;;3.08;;
35959;SDS011;22043;50.970;7.192;2023-08-07T02:30:06;10.18;;;2.58;;
35959;SDS011;22043;50.970;7.192;2023-08-07T02:32:33;6.72;;;2.38;;
35959;SDS011;22043;50.970;7.192;2023-08-07T02:34:59;8.52;;;2.83;;
35959;SDS011;22043;50.970;7.192;2023-08-07T02:37:26;10.32;;;2.35;;
35959;SDS011;22043;50.970;7.192;2023-08-07T02:39:51;7.00;;;2.30;;
35959;SDS011;22043;50.970;7.192;2023-08-07T02:42:18;9.40;;;2.10;;
35959;SDS011;22043;50.970;7.192;2023-08-07T02:44:44;4.70;;;2.20;;
35959;SDS011;22043;50.970;7.192;2023-08-07T02:47:10;6.78;;;2.30;;
35959;SDS011;22043;50.970;7.192;2023-08-07T02:49:35;8.10;;;2.65;;
35959;SDS011;22043;50.970;7.192;2023-08-07T02:52:01;5.25;;;1.58;;
35959;SDS011;22043;50.970;7.192;2023-08-07T02:54:26;6.43;;;2.20;;
35959;SDS011;22043;50.970;7.192;2023-08-07T02:56:51;5.75;;;2.00;;
35959;SDS011;22043;50.970;7.192;2023-08-07T02:59:17;11.20;;;2.80;;
35959;SDS011;22043;50.970;7.192;2023-08-07T03:01:43;4.93;;;2.08;;
35959;SDS011;22043;50.970;7.192;2023-08-07T03:04:09;8.25;;;1.80;;
35959;SDS011;22043;50.970;7.192;2023-08-07T03:06:34;10.55;;;2.10;;
35959;SDS011;22043;50.970;7.192;2023-08-07T03:09:00;12.07;;;1.92;;
35959;SDS011;22043;50.970;7.192;2023-08-07T03:11:25;7.80;;;1.95;;
35959;SDS011;22043;50.970;7.192;2023-08-07T03:13:51;4.68;;;1.90;;
35959;SDS011;22043;50.970;7.192;2023-08-07T03:16:16;9.30;;;1.98;;
35959;SDS011;22043;50.970;7.192;2023-08-07T03:18:42;6.75;;;2.03;;
35959;SDS011;22043;50.970;7.192;2023-08-07T03:21:07;6.43;;;2.80;;
35959;SDS011;22043;50.970;7.192;2023-08-07T03:23:33;7.55;;;2.58;;
35959;SDS011;22043;50.970;7.192;2023-08-07T03:26:05;7.70;;;2.60;;
35959;SDS011;22043;50.970;7.192;2023-08-07T03:28:35;8.50;;;2.88;;
35959;SDS011;22043;50.970;7.192;2023-08-07T03:31:01;9.15;;;3.10;;
35959;SDS011;22043;50.970;7.192;2023-08-07T03:33:29;8.82;;;3.13;;
35959;SDS011;22043;50.970;7.192;2023-08-07T03:35:55;12.88;;;2.80;;
35959;SDS011;22043;50.970;7.192;2023-08-07T03:38:21;11.52;;;3.35;;
35959;SDS011;22043;50.970;7.192;2023-08-07T03:40:49;11.68;;;3.22;;
35959;SDS011;22043;50.970;7.192;2023-08-07T03:43:15;10.60;;;2.90;;
35959;SDS011;22043;50.970;7.192;2023-08-07T03:45:41;13.80;;;3.60;;
35959;SDS011;22043;50.970;7.192;2023-08-07T03:48:06;9.52;;;3.10;;
35959;SDS011;22043;50.970;7.192;2023-08-07T03:50:34;12.13;;;3.83;;
35959;SDS011;22043;50.970;7.192;2023-08-07T03:53:02;12.38;;;3.78;;
35959;SDS011;22043;50.970;7.192;2023-08-07T03:55:30;12.10;;;3.97;;
35959;SDS011;22043;50.970;7.192;2023-08-07T03:57:55;7.25;;;3.25;;
35959;SDS011;22043;50.970;7.192;2023-08-07T04:00:22;12.70;;;4.10;;
35959;SDS011;22043;50.970;7.192;2023-08-07T04:02:48;14.10;;;3.40;;
35959;SDS011;22043;50.970;7.192;2023-08-07T04:05:15;16.15;;;3.47;;
35959;SDS011;22043;50.970;7.192;2023-08-07T04:07:40;8.73;;;3.30;;
35959;SDS011;22043;50.970;7.192;2023-08-07T04:10:06;12.15;;;3.60;;
35959;SDS011;22043;50.970;7.192;2023-08-07T04:12:32;10.82;;;3.70;;
35959;SDS011;22043;50.970;7.192;2023-08-07T04:14:58;9.45;;;3.20;;
35959;SDS011;22043;50.970;7.192;2023-08-07T04:17:23;10.63;;;3.45;;
35959;SDS011;22043;50.970;7.192;2023-08-07T04:19:49;13.80;;;2.95;;
35959;SDS011;22043;50.970;7.192;2023-08-07T04:22:15;12.23;;;3.10;;
35959;SDS011;22043;50.970;7.192;2023-08-07T04:24:41;12.30;;;2.75;;
35959;SDS011;22043;50.970;7.192;2023-08-07T04:27:06;7.63;;;2.10;;
35959;SDS011;22043;50.970;7.192;2023-08-07T04:29:33;5.82;;;1.90;;
35959;SDS011;22043;50.970;7.192;2023-08-07T04:31:58;6.80;;;2.20;;
35959;SDS011;22043;50.970;7.192;2023-08-07T04:34:24;10.77;;;2.40;;
35959;SDS011;22043;50.970;7.192;2023-08-07T04:36:50;8.55;;;2.30;;
35959;SDS011;22043;50.970;7.192;2023-08-07T04:39:18;10.18;;;2.63;;
35959;SDS011;22043;50.970;7.192;2023-08-07T04:41:45;11.57;;;3.13;;
35959;SDS011;22043;50.970;7.192;2023-08-07T04:44:10;10.25;;;2.40;;
35959;SDS011;22043;50.970;7.192;2023-08-07T04:46:36;10.82;;;3.05;;
35959;SDS011;22043;50.970;7.192;2023-08-07T04:49:01;9.63;;;2.33;;
35959;SDS011;22043;50.970;7.192;2023-08-07T04:51:27;8.65;;;2.78;;
35959;SDS011;22043;50.970;7.192;2023-08-07T04:53:53;7.13;;;2.58;;
35959;SDS011;22043;50.970;7.192;2023-08-07T04:56:21;11.30;;;3.00;;
35959;SDS011;22043;50.970;7.192;2023-08-07T04:58:47;11.48;;;2.20;;
35959;SDS011;22043;50.970;7.192;2023-08-07T05:01:13;9.38;;;2.95;;
35959;SDS011;22043;50.970;7.192;2023-08-07T05:03:38;11.57;;;3.17;;
35959;SDS011;22043;50.970;7.192;2023-08-07T05:06:03;7.53;;;3.50;;
35959;SDS011;22043;50.970;7.192;2023-08-07T05:08:29;9.27;;;3.15;;
35959;SDS011;22043;50.970;7.192;2023-08-07T05:10:54;9.63;;;3.40;;
35959;SDS011;22043;50.970;7.192;2023-08-07T05:13:20;8.40;;;3.50;;
35959;SDS011;22043;50.970;7.192;2023-08-07T05:15:48;14.57;;;3.65;;
35959;SDS011;22043;50.970;7.192;2023-08-07T05:18:14;8.40;;;3.42;;
35959;SDS011;22043;50.970;7.192;2023-08-07T05:20:40;7.43;;;3.20;;
35959;SDS011;22043;50.970;7.192;2023-08-07T05:23:05;9.00;;;3.28;;
35959;SDS011;22043;50.970;7.192;2023-08-07T05:25:30;9.68;;;3.40;;
35959;SDS011;22043;50.970;7.192;2023-08-07T05:27:56;9.95;;;3.58;;
35959;SDS011;22043;50.970;7.192;2023-08-07T05:30:21;9.65;;;3.35;;
35959;SDS011;22043;50.970;7.192;2023-08-07T05:32:47;13.25;;;3.17;;
35959;SDS011;22043;50.970;7.192;2023-08-07T05:35:13;8.23;;;3.63;;
35959;SDS011;22043;50.970;7.192;2023-08-07T05:37:38;10.65;;;2.95;;
35959;SDS011;22043;50.970;7.192;2023-08-07T05:40:04;12.02;;;3.15;;
35959;SDS011;22043;50.970;7.192;2023-08-07T05:42:30;9.43;;;3.03;;
35959;SDS011;22043;50.970;7.192;2023-08-07T05:44:55;7.10;;;3.00;;
35959;SDS011;22043;50.970;7.192;2023-08-07T05:47:20;7.20;;;3.08;;
35959;SDS011;22043;50.970;7.192;2023-08-07T05:49:46;8.23;;;2.45;;
35959;SDS011;22043;50.970;7.192;2023-08-07T05:52:11;6.93;;;2.40;;
35959;SDS011;22043;50.970;7.192;2023-08-07T05:54:37;6.50;;;2.20;;
35959;SDS011;22043;50.970;7.192;2023-08-07T05:57:02;7.45;;;2.33;;
35959;SDS011;22043;50.970;7.192;2023-08-07T05:59:28;6.35;;;2.25;;
35959;SDS011;22043;50.970;7.192;2023-08-07T06:01:54;6.35;;;2.25;;
35959;SDS011;22043;50.970;7.192;2023-08-07T06:04:20;9.82;;;2.15;;
35959;SDS011;22043;50.970;7.192;2023-08-07T06:06:46;14.13;;;2.10;;
35959;SDS011;22043;50.970;7.192;2023-08-07T06:09:12;7.05;;;1.92;;
35959;SDS011;22043;50.970;7.192;2023-08-07T06:11:40;11.45;;;2.70;;
35959;SDS011;22043;50.970;7.192;2023-08-07T06:14:06;8.55;;;2.35;;
35959;SDS011;22043;50.970;7.192;2023-08-07T06:16:32;13.55;;;2.10;;
35959;SDS011;22043;50.970;7.192;2023-08-07T06:18:57;9.93;;;1.80;;
35959;SDS011;22043;50.970;7.192;2023-08-07T06:21:23;11.48;;;1.95;;
35959;SDS011;22043;50.970;7.192;2023-08-07T06:23:48;9.35;;;2.63;;
35959;SDS011;22043;50.970;7.192;2023-08-07T06:26:14;9.40;;;2.55;;
35959;SDS011;22043;50.970;7.192;2023-08-07T06:28:39;7.00;;;2.38;;
35959;SDS011;22043;50.970;7.192;2023-08-07T06:31:08;5.35;;;1.92;;
35959;SDS011;22043;50.970;7.192;2023-08-07T06:33:35;8.00;;;1.85;;
35959;SDS011;22043;50.970;7.192;2023-08-07T06:36:01;9.43;;;2.28;;
35959;SDS011;22043;50.970;7.192;2023-08-07T06:38:27;8.32;;;2.15;;
35959;SDS011;22043;50.970;7.192;2023-08-07T06:40:53;7.60;;;2.20;;
35959;SDS011;22043;50.970;7.192;2023-08-07T06:43:18;7.60;;;2.17;;
35959;SDS011;22043;50.970;7.192;2023-08-07T06:45:51;5.88;;;2.03;;
35959;SDS011;22043;50.970;7.192;2023-08-07T06:48:19;8.85;;;2.55;;
35959;SDS011;22043;50.970;7.192;2023-08-07T06:50:48;6.32;;;2.45;;
35959;SDS011;22043;50.970;7.192;2023-08-07T06:53:14;7.72;;;2.22;;
35959;SDS011;22043;50.970;7.192;2023-08-07T06:55:42;4.65;;;2.17;;
35959;SDS011;22043;50.970;7.192;2023-08-07T06:58:08;6.93;;;2.10;;
35959;SDS011;22043;50.970;7.192;2023-08-07T07:00:34;10.07;;;2.03;;
35959;SDS011;22043;50.970;7.192;2023-08-07T07:03:03;4.38;;;2.13;;
35959;SDS011;22043;50.970;7.192;2023-08-07T07:05:29;7.22;;;2.45;;
35959;SDS011;22043;50.970;7.192;2023-08-07T07:07:55;7.97;;;1.98;;
35959;SDS011;22043;50.970;7.192;2023-08-07T07:10:21;5.43;;;1.92;;
35959;SDS011;22043;50.970;7.192;2023-08-07T07:12:46;6.07;;;2.20;;
35959;SDS011;22043;50.970;7.192;2023-08-07T07:15:13;8.20;;;1.83;;
35959;SDS011;22043;50.970;7.192;2023-08-07T07:17:38;4.78;;;2.25;;
35959;SDS011;22043;50.970;7.192;2023-08-07T07:20:04;7.90;;;2.20;;
35959;SDS011;22043;50.970;7.192;2023-08-07T07:22:30;6.13;;;2.05;;
35959;SDS011;22043;50.970;7.192;2023-08-07T07:24:55;8.50;;;2.20;;
35959;SDS011;22043;50.970;7.192;2023-08-07T07:27:21;11.60;;;2.90;;
35959;SDS011;22043;50.970;7.192;2023-08-07T07:29:47;6.18;;;2.42;;
35959;SDS011;22043;50.970;7.192;2023-08-07T07:32:13;4.97;;;2.10;;
35959;SDS011;22043;50.970;7.192;2023-08-07T07:34:39;5.22;;;1.88;;
35959;SDS011;22043;50.970;7.192;2023-08-07T07:37:04;6.13;;;1.98;;
35959;SDS011;22043;50.970;7.192;2023-08-07T07:39:30;5.95;;;2.17;;
35959;SDS011;22043;50.970;7.192;2023-08-07T07:41:55;6.30;;;1.70;;
35959;SDS011;22043;50.970;7.192;2023-08-07T07:44:21;6.72;;;1.90;;
35959;SDS011;22043;50.970;7.192;2023-08-07T07:46:46;5.18;;;2.45;;
35959;SDS011;22043;50.970;7.192;2023-08-07T07:49:12;9.00;;;2.20;;
35959;SDS011;22043;50.970;7.192;2023-08-07T07:51:37;12.18;;;2.85;;
35959;SDS011;22043;50.970;7.192;2023-08-07T07:54:03;10.93;;;2.88;;
35959;SDS011;22043;50.970;7.192;2023-08-07T07:56:29;7.20;;;2.22;;
35959;SDS011;22043;50.970;7.192;2023-08-07T07:58:55;8.68;;;2.40;;
35959;SDS011;22043;50.970;7.192;2023-08-07T08:01:20;10.70;;;2.50;;
35959;SDS011;22043;50.970;7.192;2023-08-07T08:03:45;3.88;;;1.75;;
35959;SDS011;22043;50.970;7.192;2023-08-07T08:06:11;5.30;;;2.20;;
35959;SDS011;22043;50.970;7.192;2023-08-07T08:08:37;8.23;;;2.50;;
35959;SDS011;22043;50.970;7.192;2023-08-07T08:11:03;9.35;;;2.40;;
35959;SDS011;22043;50.970;7.192;2023-08-07T08:13:29;7.75;;;2.05;;
35959;SDS011;22043;50.970;7.192;2023-08-07T08:15:54;5.68;;;2.03;;
35959;SDS011;22043;50.970;7.192;2023-08-07T08:18:19;11.30;;;2.95;;
35959;SDS011;22043;50.970;7.192;2023-08-07T08:20:45;8.57;;;2.00;;
35959;SDS011;22043;50.970;7.192;2023-08-07T08:23:10;7.75;;;2.80;;
35959;SDS011;22043;50.970;7.192;2023-08-07T08:25:36;7.05;;;1.98;;
35959;SDS011;22043;50.970;7.192;2023-08-07T08:28:01;7.65;;;2.05;;
35959;SDS011;22043;50.970;7.192;2023-08-07T08:30:27;7.78;;;2.00;;
35959;SDS011;22043;50.970;7.192;2023-08-07T08:32:53;7.95;;;2.28;;
35959;SDS011;22043;50.970;7.192;2023-08-07T08:35:19;9.63;;;2.33;;
35959;SDS011;22043;50.970;7.192;2023-08-07T08:37:44;9.82;;;2.30;;
35959;SDS011;22043;50.970;7.192;2023-08-07T08:40:10;7.25;;;2.20;;
35959;SDS011;22043;50.970;7.192;2023-08-07T08:42:38;8.63;;;2.20;;
35959;SDS011;22043;50.970;7.192;2023-08-07T08:45:08;7.15;;;2.00;;
35959;SDS011;22043;50.970;7.192;2023-08-07T08:50:02;9.90;;;2.55;;
35959;SDS011;22043;50.970;7.192;2023-08-07T08:52:31;12.63;;;2.70;;
35959;SDS011;22043;50.970;7.192;2023-08-07T08:54:58;10.95;;;2.63;;
35959;SDS011;22043;50.970;7.192;2023-08-07T08:57:27;14.05;;;3.72;;
35959;SDS011;22043;50.970;7.192;2023-08-07T08:59:53;11.80;;;2.75;;
35959;SDS011;22043;50.970;7.192;2023-08-07T09:02:18;9.10;;;2.50;;
35959;SDS011;22043;50.970;7.192;2023-08-07T09:04:44;9.25;;;2.35;;
35959;SDS011;22043;50.970;7.192;2023-08-07T09:07:13;7.97;;;2.63;;
35959;SDS011;22043;50.970;7.192;2023-08-07T09:09:40;7.38;;;2.83;;
35959;SDS011;22043;50.970;7.192;2023-08-07T09:12:06;7.30;;;2.90;;
35959;SDS011;22043;50.970;7.192;2023-08-07T09:14:33;14.80;;;2.95;;
35959;SDS011;22043;50.970;7.192;2023-08-07T09:16:59;12.95;;;3.53;;
35959;SDS011;22043;50.970;7.192;2023-08-07T09:19:26;7.07;;;3.63;;
35959;SDS011;22043;50.970;7.192;2023-08-07T09:21:52;6.82;;;3.03;;
35959;SDS011;22043;50.970;7.192;2023-08-07T09:24:17;8.13;;;2.35;;
35959;SDS011;22043;50.970;7.192;2023-08-07T09:26:45;7.10;;;1.90;;
35959;SDS011;22043;50.970;7.192;2023-08-07T09:29:10;7.70;;;2.00;;
35959;SDS011;22043;50.970;7.192;2023-08-07T09:31:36;5.28;;;1.60;;
35959;SDS011;22043;50.970;7.192;2023-08-07T09:34:03;10.10;;;2.25;;
35959;SDS011;22043;50.970;7.192;2023-08-07T09:36:30;4.45;;;1.42;;
35959;SDS011;22043;50.970;7.192;2023-08-07T09:38:58;8.10;;;1.77;;
35959;SDS011;22043;50.970;7.192;2023-08-07T09:41:25;7.38;;;1.80;;
35959;SDS011;22043;50.970;7.192;2023-08-07T09:43:52;4.68;;;1.90;;
35959;SDS011;22043;50.970;7.192;2023-08-07T09:46:18;4.38;;;2.03;;
35959;SDS011;22043;50.970;7.192;2023-08-07T09:48:44;9.07;;;2.55;;
35959;SDS011;22043;50.970;7.192;2023-08-07T09:51:10;12.25;;;3.20;;
35959;SDS011;22043;50.970;7.192;2023-08-07T09:53:36;7.88;;;2.92;;
35959;SDS011;22043;50.970;7.192;2023-08-07T09:56:02;7.07;;;3.20;;
35959;SDS011;22043;50.970;7.192;2023-08-07T09:58:28;9.45;;;3.00;;
35959;SDS011;22043;50.970;7.192;2023-08-07T10:00:54;10.98;;;3.20;;
35959;SDS011;22043;50.970;7.192;2023-08-07T10:03:24;10.15;;;2.92;;
35959;SDS011;22043;50.970;7.192;2023-08-07T10:05:50;10.30;;;2.83;;
35959;SDS011;22043;50.970;7.192;2023-08-07T10:08:16;9.38;;;2.88;;
35959;SDS011;22043;50.970;7.192;2023-08-07T10:10:41;8.65;;;3.20;;
35959;SDS011;22043;50.970;7.192;2023-08-07T10:13:07;8.00;;;3.08;;
35959;SDS011;22043;50.970;7.192;2023-08-07T10:15:33;10.98;;;2.60;;
35959;SDS011;22043;50.970;7.192;2023-08-07T10:18:02;9.52;;;2.10;;
35959;SDS011;22043;50.970;7.192;2023-08-07T10:20:28;12.82;;;2.15;;
35959;SDS011;22043;50.970;7.192;2023-08-07T10:23:00;6.75;;;1.70;;
35959;SDS011;22043;50.970;7.192;2023-08-07T10:25:27;8.63;;;2.20;;
35959;SDS011;22043;50.970;7.192;2023-08-07T10:27:53;10.43;;;1.83;;
35959;SDS011;22043;50.970;7.192;2023-08-07T10:30:21;5.80;;;1.80;;
35959;SDS011;22043;50.970;7.192;2023-08-07T10:32:47;7.20;;;2.65;;
35959;SDS011;22043;50.970;7.192;2023-08-07T10:35:25;5.80;;;1.45;;
35959;SDS011;22043;50.970;7.192;2023-08-07T10:38:07;7.72;;;1.38;;
35959;SDS011;22043;50.970;7.192;2023-08-07T10:40:34;2.88;;;1.30;;
35959;SDS011;22043;50.970;7.192;2023-08-07T10:43:11;4.18;;;1.63;;
35959;SDS011;22043;50.970;7.192;2023-08-07T10:45:38;5.60;;;1.50;;
35959;SDS011;22043;50.970;7.192;2023-08-07T10:50:31;7.60;;;1.95;;
35959;SDS011;22043;50.970;7.192;2023-08-07T10:52:59;4.23;;;1.20;;
35959;SDS011;22043;50.970;7.192;2023-08-07T10:55:25;9.23;;;1.80;;
35959;SDS011;22043;50.970;7.192;2023-08-07T10:57:52;8.27;;;1.70;;
35959;SDS011;22043;50.970;7.192;2023-08-07T11:00:21;6.05;;;1.95;;
35959;SDS011;22043;50.970;7.192;2023-08-07T11:02:50;8.50;;;1.80;;
35959;SDS011;22043;50.970;7.192;2023-08-07T11:05:16;4.68;;;1.38;;
35959;SDS011;22043;50.970;7.192;2023-08-07T11:07:43;8.00;;;2.10;;
35959;SDS011;22043;50.970;7.192;2023-08-07T11:12:38;4.78;;;1.55;;
35959;SDS011;22043;50.970;7.192;2023-08-07T11:15:05;9.15;;;1.65;;
35959;SDS011;22043;50.970;7.192;2023-08-07T11:17:31;3.40;;;1.40;;
35959;SDS011;22043;50.970;7.192;2023-08-07T11:19:56;5.22;;;1.40;;
35959;SDS011;22043;50.970;7.192;2023-08-07T11:22:22;6.95;;;1.10;;
35959;SDS011;22043;50.970;7.192;2023-08-07T11:24:49;4.45;;;1.40;;
35959;SDS011;22043;50.970;7.192;2023-08-07T11:27:16;4.55;;;1.10;;
35959;SDS011;22043;50.970;7.192;2023-08-07T11:29:44;5.18;;;1.13;;
35959;SDS011;22043;50.970;7.192;2023-08-07T11:32:13;7.07;;;1.20;;
35959;SDS011;22043;50.970;7.192;2023-08-07T11:34:39;4.50;;;1.60;;
35959;SDS011;22043;50.970;7.192;2023-08-07T11:37:04;5.03;;;1.17;;
35959;SDS011;22043;50.970;7.192;2023-08-07T11:39:29;7.05;;;1.10;;
35959;SDS011;22043;50.970;7.192;2023-08-07T11:41:55;2.40;;;0.82;;
35959;SDS011;22043;50.970;7.192;2023-08-07T11:44:20;8.27;;;1.73;;
35959;SDS011;22043;50.970;7.192;2023-08-07T11:46:47;5.57;;;1.20;;
35959;SDS011;22043;50.970;7.192;2023-08-07T11:49:13;7.28;;;1.02;;
35959;SDS011;22043;50.970;7.192;2023-08-07T11:51:38;6.50;;;1.30;;
35959;SDS011;22043;50.970;7.192;2023-08-07T11:54:04;4.90;;;1.10;;
35959;SDS011;22043;50.970;7.192;2023-08-07T11:56:29;6.22;;;1.23;;
35959;SDS011;22043;50.970;7.192;2023-08-07T11:58:56;4.20;;;1.02;;
35959;SDS011;22043;50.970;7.192;2023-08-07T12:01:23;5.75;;;1.00;;
35959;SDS011;22043;50.970;7.192;2023-08-07T12:06:34;7.72;;;1.20;;
35959;SDS011;22043;50.970;7.192;2023-08-07T12:09:08;2.53;;;1.08;;
35959;SDS011;22043;50.970;7.192;2023-08-07T12:11:37;5.45;;;1.58;;
35959;SDS011;22043;50.970;7.192;2023-08-07T12:14:03;4.57;;;1.38;;
35959;SDS011;22043;50.970;7.192;2023-08-07T12:16:32;4.10;;;0.95;;
35959;SDS011;22043;50.970;7.192;2023-08-07T12:18:58;6.30;;;1.30;;
35959;SDS011;22043;50.970;7.192;2023-08-07T12:21:23;3.55;;;0.90;;
35959;SDS011;22043;50.970;7.192;2023-08-07T12:23:49;3.85;;;1.33;;
35959;SDS011;22043;50.970;7.192;2023-08-07T12:26:15;5.22;;;1.10;;
35959;SDS011;22043;50.970;7.192;2023-08-07T12:28:41;3.20;;;1.00;;
35959;SDS011;22043;50.970;7.192;2023-08-07T12:31:06;3.10;;;1.05;;
35959;SDS011;22043;50.970;7.192;2023-08-07T12:33:32;4.35;;;1.15;;
35959;SDS011;22043;50.970;7.192;2023-08-07T12:35:58;3.55;;;1.05;;
35959;SDS011;22043;50.970;7.192;2023-08-07T12:38:24;5.63;;;1.50;;
35959;SDS011;22043;50.970;7.192;2023-08-07T12:40:51;3.28;;;0.88;;
35959;SDS011;22043;50.970;7.192;2023-08-07T12:43:16;5.20;;;1.10;;
35959;SDS011;22043;50.970;7.192;2023-08-07T12:45:42;4.15;;;1.52;;
35959;SDS011;22043;50.970;7.192;2023-08-07T12:48:08;4.43;;;1.10;;
35959;SDS011;22043;50.970;7.192;2023-08-07T12:50:35;4.63;;;1.08;;
35959;SDS011;22043;50.970;7.192;2023-08-07T12:53:02;6.32;;;1.52;;
35959;SDS011;22043;50.970;7.192;2023-08-07T12:55:27;3.53;;;1.20;;
35959;SDS011;22043;50.970;7.192;2023-08-07T12:57:54;3.30;;;1.00;;
35959;SDS011;22043;50.970;7.192;2023-08-07T13:00:19;3.92;;;1.10;;
35959;SDS011;22043;50.970;7.192;2023-08-07T13:02:45;3.65;;;0.95;;
35959;SDS011;22043;50.970;7.192;2023-08-07T13:05:13;7.88;;;1.00;;
35959;SDS011;22043;50.970;7.192;2023-08-07T13:07:39;5.10;;;1.10;;
35959;SDS011;22043;50.970;7.192;2023-08-07T13:10:06;4.07;;;1.10;;
35959;SDS011;22043;50.970;7.192;2023-08-07T13:12:34;2.35;;;0.93;;
35959;SDS011;22043;50.970;7.192;2023-08-07T13:15:00;6.15;;;1.00;;
35959;SDS011;22043;50.970;7.192;2023-08-07T13:17:26;3.20;;;0.70;;
35959;SDS011;22043;50.970;7.192;2023-08-07T13:19:52;5.72;;;0.90;;
35959;SDS011;22043;50.970;7.192;2023-08-07T13:22:17;3.55;;;1.05;;
35959;SDS011;22043;50.970;7.192;2023-08-07T13:24:43;3.25;;;1.08;;
35959;SDS011;22043;50.970;7.192;2023-08-07T13:27:08;2.85;;;0.98;;
35959;SDS011;22043;50.970;7.192;2023-08-07T13:29:34;2.70;;;1.15;;
35959;SDS011;22043;50.970;7.192;2023-08-07T13:31:59;5.13;;;1.00;;
35959;SDS011;22043;50.970;7.192;2023-08-07T13:34:25;6.10;;;0.90;;
35959;SDS011;22043;50.970;7.192;2023-08-07T13:36:50;3.40;;;0.77;;
35959;SDS011;22043;50.970;7.192;2023-08-07T13:39:16;5.65;;;1.05;;
35959;SDS011;22043;50.970;7.192;2023-08-07T13:41:41;2.97;;;0.82;;
35959;SDS011;22043;50.970;7.192;2023-08-07T13:44:07;3.28;;;0.90;;
35959;SDS011;22043;50.970;7.192;2023-08-07T13:46:32;2.80;;;1.10;;
35959;SDS011;22043;50.970;7.192;2023-08-07T13:49:01;2.70;;;0.73;;
35959;SDS011;22043;50.970;7.192;2023-08-07T13:51:26;2.65;;;1.17;;
35959;SDS011;22043;50.970;7.192;2023-08-07T13:53:53;4.72;;;1.13;;
35959;SDS011;22043;50.970;7.192;2023-08-07T13:56:19;3.70;;;1.08;;
35959;SDS011;22043;50.970;7.192;2023-08-07T13:58:46;2.67;;;0.93;;
35959;SDS011;22043;50.970;7.192;2023-08-07T14:01:12;3.22;;;1.23;;
35959;SDS011;22043;50.970;7.192;2023-08-07T14:03:38;4.32;;;1.20;;
35959;SDS011;22043;50.970;7.192;2023-08-07T14:06:03;2.33;;;0.80;;
35959;SDS011;22043;50.970;7.192;2023-08-07T14:08:29;3.83;;;1.20;;
35959;SDS011;22043;50.970;7.192;2023-08-07T14:10:54;3.17;;;0.98;;
35959;SDS011;22043;50.970;7.192;2023-08-07T14:13:20;4.20;;;1.05;;
35959;SDS011;22043;50.970;7.192;2023-08-07T14:15:45;1.98;;;0.65;;
35959;SDS011;22043;50.970;7.192;2023-08-07T14:18:11;3.75;;;1.00;;
35959;SDS011;22043;50.970;7.192;2023-08-07T14:20:39;3.35;;;0.73;;
35959;SDS011;22043;50.970;7.192;2023-08-07T14:23:05;2.95;;;1.35;;
35959;SDS011;22043;50.970;7.192;2023-08-07T14:25:30;4.68;;;1.10;;
35959;SDS011;22043;50.970;7.192;2023-08-07T14:27:56;2.20;;;0.85;;
35959;SDS011;22043;50.970;7.192;2023-08-07T14:30:21;4.90;;;0.88;;
35959;SDS011;22043;50.970;7.192;2023-08-07T14:32:47;6.72;;;1.67;;
35959;SDS011;22043;50.970;7.192;2023-08-07T14:35:15;5.65;;;0.90;;
35959;SDS011;22043;50.970;7.192;2023-08-07T14:37:41;2.92;;;0.80;;
35959;SDS011;22043;50.970;7.192;2023-08-07T14:40:06;3.70;;;1.00;;
35959;SDS011;22043;50.970;7.192;2023-08-07T14:42:32;5.63;;;1.10;;
35959;SDS011;22043;50.970;7.192;2023-08-07T14:44:58;4.07;;;1.02;;
35959;SDS011;22043;50.970;7.192;2023-08-07T14:47:23;5.43;;;1.23;;
35959;SDS011;22043;50.970;7.192;2023-08-07T14:49:49;2.42;;;1.10;;
35959;SDS011;22043;50.970;7.192;2023-08-07T14:52:15;3.85;;;1.08;;
35959;SDS011;22043;50.970;7.192;2023-08-07T14:54:40;4.03;;;1.10;;